createdAt,value
2023-01-31T00:01:38.792Z,1.10
2023-01-31T00:04:08.308Z,1.10
2023-01-31T00:06:38.733Z,1.10
2023-01-31T00:09:07.608Z,1.10
2023-01-31T00:11:35.090Z,1.10
2023-01-31T00:14:04.573Z,1.10
2023-01-31T00:16:31.872Z,1.00
2023-01-31T00:18:58.851Z,1.00
2023-01-31T00:21:27.939Z,1.00
2023-01-31T00:23:55.601Z,0.90
2023-01-31T00:26:25.139Z,1.00
2023-01-31T00:28:53.317Z,0.90
2023-01-31T00:31:22.189Z,0.90
2023-01-31T00:33:50.378Z,1.00
2023-01-31T00:36:20.142Z,0.90
2023-01-31T00:38:54.545Z,0.90
2023-01-31T00:41:22.648Z,0.90
2023-01-31T00:43:50.543Z,0.90
2023-01-31T00:46:18.099Z,0.80
2023-01-31T00:48:44.960Z,0.80
2023-01-31T00:51:11.894Z,0.80
2023-01-31T00:53:38.802Z,0.70
2023-01-31T00:56:11.379Z,0.70
2023-01-31T00:58:47.711Z,0.70
2023-01-31T01:01:17.924Z,0.70
2023-01-31T01:03:45.460Z,0.70
2023-01-31T01:06:15.858Z,0.70
2023-01-31T01:08:46.348Z,0.70
2023-01-31T01:11:21.928Z,0.70
2023-01-31T01:13:51.679Z,0.70
2023-01-31T01:16:25.370Z,0.70
2023-01-31T01:18:55.118Z,0.60
2023-01-31T01:21:26.863Z,0.60
2023-01-31T01:24:03.225Z,0.60
2023-01-31T01:26:32.910Z,0.60
2023-01-31T01:29:16.501Z,0.60
2023-01-31T01:31:49.299Z,0.40
2023-01-31T01:34:29.708Z,0.50
2023-01-31T01:36:56.498Z,0.50
2023-01-31T01:39:23.707Z,0.60
2023-01-31T01:41:53.640Z,0.50
2023-01-31T01:45:00.568Z,0.60
2023-01-31T01:47:44.229Z,0.40
2023-01-31T01:50:40.434Z,0.40
2023-01-31T01:53:23.354Z,0.30
2023-01-31T01:56:01.996Z,0.30
2023-01-31T01:58:48.467Z,0.30
2023-01-31T02:01:16.863Z,0.20
2023-01-31T02:04:02.588Z,0.30
2023-01-31T02:06:29.516Z,0.30
2023-01-31T02:08:58.552Z,0.40
2023-01-31T02:11:36.915Z,0.40
2023-01-31T02:14:23.079Z,0.40
2023-01-31T02:16:59.585Z,0.40
2023-01-31T02:20:01.310Z,0.30
2023-01-31T02:22:46.257Z,0.30
2023-01-31T02:25:40.618Z,0.20
2023-01-31T02:28:33.115Z,0.20
2023-01-31T02:31:17.711Z,0.10
2023-01-31T02:33:57.856Z,0.10
2023-01-31T02:36:39.209Z,0.10
2023-01-31T02:39:28.100Z,0.10
2023-01-31T02:42:23.914Z,0.00
2023-01-31T02:45:04.477Z,0.00
2023-01-31T02:52:14.894Z,0.00
2023-01-31T02:55:01.650Z,0.00
2023-01-31T02:57:28.770Z,0.00
2023-01-31T02:59:55.789Z,-0.10
2023-01-31T03:02:24.647Z,-0.10
2023-01-31T03:04:51.357Z,-0.10
2023-01-31T03:11:08.534Z,-0.30
2023-01-31T03:13:42.119Z,-0.30
2023-01-31T03:16:38.362Z,-0.30
2023-01-31T03:19:17.520Z,-0.30
2023-01-31T03:21:56.834Z,-0.30
2023-01-31T03:24:26.492Z,-0.30
2023-01-31T03:27:16.800Z,-0.40
2023-01-31T03:29:57.969Z,-0.40
2023-01-31T03:32:40.921Z,-0.40
2023-01-31T03:35:12.441Z,-0.40
2023-01-31T03:38:39.558Z,-0.50
2023-01-31T03:41:18.405Z,-0.50
2023-01-31T03:44:20.253Z,-0.40
2023-01-31T03:46:54.797Z,-0.50
2023-01-31T03:49:45.944Z,-0.50
2023-01-31T03:52:28.036Z,-0.60
2023-01-31T03:55:18.254Z,-0.60
2023-01-31T03:58:14.408Z,-0.50
2023-01-31T04:04:02.122Z,-0.40
2023-01-31T04:09:44.258Z,-0.50
2023-01-31T04:12:21.735Z,-0.50
2023-01-31T04:15:00.864Z,-0.50
2023-01-31T04:17:48.093Z,-0.60
2023-01-31T04:20:25.372Z,-0.60
2023-01-31T04:23:00.705Z,-0.60
2023-01-31T04:25:33.621Z,-0.60
2023-01-31T04:28:21.918Z,-0.60
2023-01-31T04:31:08.285Z,-0.70
2023-01-31T04:34:00.408Z,-0.70
2023-01-31T04:36:30.405Z,-0.70
2023-01-31T04:38:58.336Z,-0.70
2023-01-31T04:41:40.952Z,-0.70
2023-01-31T04:44:26.687Z,-0.70
2023-01-31T04:47:06.405Z,-0.60
2023-01-31T04:49:41.250Z,-0.60
2023-01-31T04:52:08.629Z,-0.70
2023-01-31T04:54:45.685Z,-0.70
2023-01-31T04:57:18.134Z,-0.60
2023-01-31T04:59:49.111Z,-0.70
2023-01-31T05:02:23.976Z,-0.60
2023-01-31T05:04:51.043Z,-0.70
2023-01-31T05:07:26.296Z,-0.70
2023-01-31T05:09:53.248Z,-0.60
2023-01-31T05:12:23.602Z,-0.70
2023-01-31T05:14:51.514Z,-0.70
2023-01-31T05:17:21.999Z,-0.70
2023-01-31T05:19:48.850Z,-0.80
2023-01-31T05:22:15.940Z,-0.70
2023-01-31T05:24:43.120Z,-0.80
2023-01-31T05:27:10.269Z,-0.80
2023-01-31T05:29:37.070Z,-0.80
2023-01-31T05:32:04.461Z,-0.80
2023-01-31T05:34:33.217Z,-0.80
2023-01-31T05:37:01.006Z,-0.80
2023-01-31T05:39:28.874Z,-0.90
2023-01-31T05:41:55.705Z,-0.90
2023-01-31T05:44:22.651Z,-0.80
2023-01-31T05:46:49.890Z,-0.90
2023-01-31T05:49:16.873Z,-0.90
2023-01-31T05:51:43.571Z,-1.00
2023-01-31T05:54:11.740Z,-1.00
2023-01-31T05:56:39.261Z,-1.10
2023-01-31T05:59:06.652Z,-1.10
2023-01-31T06:01:33.574Z,-1.20
2023-01-31T06:04:00.799Z,-1.20
2023-01-31T06:06:33.987Z,-1.20
2023-01-31T06:09:00.907Z,-1.20
2023-01-31T06:11:28.082Z,-1.30
2023-01-31T06:13:58.064Z,-1.30
2023-01-31T06:16:25.651Z,-1.40
2023-01-31T06:18:52.515Z,-1.40
2023-01-31T06:21:19.274Z,-1.40
2023-01-31T06:23:47.796Z,-1.40
2023-01-31T06:26:14.894Z,-1.30
2023-01-31T06:28:41.828Z,-1.30
2023-01-31T06:31:10.309Z,-1.40
2023-01-31T06:33:46.206Z,-1.30
2023-01-31T06:36:16.608Z,-1.50
2023-01-31T06:38:44.903Z,-1.60
2023-01-31T06:41:12.904Z,-1.60
2023-01-31T06:43:39.655Z,-1.60
2023-01-31T06:46:06.417Z,-1.60
2023-01-31T06:48:33.145Z,-1.50
2023-01-31T06:51:00.021Z,-1.60
2023-01-31T06:53:26.782Z,-1.60
2023-01-31T06:55:53.931Z,-1.60
2023-01-31T06:58:20.847Z,-1.70
2023-01-31T07:00:48.003Z,-1.70
2023-01-31T07:03:14.868Z,-1.70
2023-01-31T07:05:41.723Z,-1.70
2023-01-31T07:08:08.537Z,-1.70
2023-01-31T07:10:35.370Z,-1.70
2023-01-31T07:13:02.262Z,-1.70
2023-01-31T07:15:29.291Z,-1.70
2023-01-31T07:17:59.743Z,-1.70
2023-01-31T07:20:26.829Z,-1.70
2023-01-31T07:22:57.665Z,-1.70
2023-01-31T07:25:31.068Z,-1.70
2023-01-31T07:27:58.053Z,-1.70
2023-01-31T07:30:24.873Z,-1.70
2023-01-31T07:32:51.659Z,-1.80
2023-01-31T07:35:19.387Z,-1.80
2023-01-31T07:37:46.479Z,-1.80
2023-01-31T07:40:15.523Z,-1.80
2023-01-31T07:42:42.861Z,-1.70
2023-01-31T07:45:22.826Z,-1.70
2023-01-31T07:47:50.808Z,-1.70
2023-01-31T07:50:18.319Z,-1.70
2023-01-31T07:52:45.145Z,-1.60
2023-01-31T07:55:11.894Z,-1.60
2023-01-31T07:57:38.570Z,-1.60
2023-01-31T08:00:25.861Z,-1.60
2023-01-31T08:03:11.562Z,-1.50
2023-01-31T08:05:38.258Z,-1.40
2023-01-31T08:08:10.860Z,-1.40
2023-01-31T08:10:37.869Z,-1.20
2023-01-31T08:13:06.322Z,-1.20
2023-01-31T08:15:34.008Z,-1.00
2023-01-31T08:18:00.876Z,-1.00
2023-01-31T08:20:27.809Z,-0.90
2023-01-31T08:22:56.155Z,-0.90
2023-01-31T08:25:23.162Z,-0.80
2023-01-31T08:27:50.034Z,-0.70
2023-01-31T08:30:17.241Z,-0.70
2023-01-31T08:32:43.969Z,-0.60
2023-01-31T08:35:10.649Z,-0.50
2023-01-31T08:37:37.291Z,-0.50
2023-01-31T08:40:04.463Z,-0.30
2023-01-31T08:42:31.539Z,-0.20
2023-01-31T08:44:58.285Z,0.00
2023-01-31T08:47:25.035Z,0.00
2023-01-31T08:49:51.857Z,0.10
2023-01-31T08:52:18.616Z,0.30
2023-01-31T08:54:45.926Z,0.40
2023-01-31T08:57:13.023Z,0.50
2023-01-31T08:59:39.769Z,0.60
2023-01-31T09:02:06.512Z,0.60
2023-01-31T09:04:33.548Z,0.70
2023-01-31T09:07:00.293Z,0.90
2023-01-31T09:09:29.087Z,1.00
2023-01-31T09:11:56.475Z,1.20
2023-01-31T09:14:23.254Z,1.40
2023-01-31T09:16:50.136Z,1.50
2023-01-31T09:19:16.974Z,1.50
2023-01-31T09:21:43.706Z,1.50
2023-01-31T09:24:11.901Z,1.50
2023-01-31T09:26:38.610Z,1.50
2023-01-31T09:29:05.473Z,1.50
2023-01-31T09:31:35.304Z,1.70
2023-01-31T09:34:02.184Z,1.90
2023-01-31T09:36:30.213Z,2.10
2023-01-31T09:38:57.937Z,2.10
2023-01-31T09:41:45.842Z,2.10
2023-01-31T09:44:19.500Z,2.00
2023-01-31T09:46:54.291Z,1.90
2023-01-31T09:49:32.406Z,2.00
2023-01-31T09:52:02.507Z,2.00
2023-01-31T09:54:36.551Z,2.00
2023-01-31T09:57:12.467Z,2.10
2023-01-31T10:00:13.127Z,2.10
2023-01-31T10:02:51.913Z,2.10
2023-01-31T10:05:37.479Z,2.10
2023-01-31T10:08:20.663Z,2.10
2023-01-31T10:11:00.625Z,2.10
2023-01-31T10:13:35.500Z,2.10
2023-01-31T10:16:25.615Z,2.10
2023-01-31T10:19:04.092Z,2.10
2023-01-31T10:21:36.102Z,2.10
2023-01-31T10:24:14.789Z,2.10
2023-01-31T10:26:45.303Z,2.10
2023-01-31T10:29:32.720Z,2.10
2023-01-31T10:32:08.760Z,2.10
2023-01-31T10:34:40.441Z,2.20
2023-01-31T10:37:12.170Z,2.20
2023-01-31T10:39:56.434Z,2.10
2023-01-31T10:42:34.767Z,2.20
2023-01-31T10:45:17.261Z,2.30
2023-01-31T10:47:51.752Z,2.40
2023-01-31T10:50:26.090Z,2.50
2023-01-31T10:53:23.653Z,2.70
2023-01-31T10:56:02.274Z,2.90
2023-01-31T10:58:29.375Z,3.00
2023-01-31T11:00:56.357Z,3.00
2023-01-31T11:03:23.454Z,3.00
2023-01-31T11:05:54.223Z,2.90
2023-01-31T11:08:40.254Z,2.90
2023-01-31T11:11:17.020Z,2.80
2023-01-31T11:13:57.532Z,2.80
2023-01-31T11:16:25.998Z,2.80
2023-01-31T11:18:53.589Z,2.80
2023-01-31T11:21:40.247Z,2.80
2023-01-31T11:24:23.091Z,2.80
2023-01-31T11:27:00.631Z,2.90
2023-01-31T11:29:35.839Z,2.90
2023-01-31T11:32:06.404Z,2.80
2023-01-31T11:34:33.898Z,2.80
2023-01-31T11:37:06.629Z,2.90
2023-01-31T11:39:37.953Z,2.90
2023-01-31T11:42:13.165Z,3.00
2023-01-31T11:45:00.317Z,3.10
2023-01-31T11:47:57.839Z,3.10
2023-01-31T11:50:37.865Z,3.20
2023-01-31T11:53:21.861Z,3.20
2023-01-31T11:55:51.197Z,3.20
2023-01-31T11:58:34.890Z,3.20
2023-01-31T12:01:06.956Z,3.20
2023-01-31T12:03:34.649Z,3.20
2023-01-31T12:06:05.110Z,3.30
2023-01-31T12:08:35.829Z,3.30
2023-01-31T12:11:27.063Z,3.20
2023-01-31T12:14:03.161Z,3.30
2023-01-31T12:16:31.132Z,3.30
2023-01-31T12:19:13.609Z,3.30
2023-01-31T12:22:08.516Z,3.30
2023-01-31T12:24:44.074Z,3.30
2023-01-31T12:27:41.289Z,3.20
2023-01-31T12:30:39.366Z,3.20
2023-01-31T12:33:29.370Z,3.20
2023-01-31T12:36:22.352Z,3.20
2023-01-31T12:39:02.093Z,3.20
2023-01-31T12:41:50.565Z,3.20
2023-01-31T12:44:38.493Z,3.20
2023-01-31T12:47:11.445Z,3.20
2023-01-31T12:49:57.456Z,3.20
2023-01-31T12:52:46.813Z,3.20
2023-01-31T12:55:33.821Z,3.20
2023-01-31T12:58:43.156Z,3.20
2023-01-31T13:01:34.556Z,3.10
2023-01-31T13:04:44.665Z,3.10
2023-01-31T13:07:34.212Z,3.00
2023-01-31T13:10:05.283Z,3.00
2023-01-31T13:12:34.968Z,3.10
2023-01-31T13:15:15.458Z,3.10
2023-01-31T13:17:43.245Z,3.20
2023-01-31T13:20:15.497Z,3.20
2023-01-31T13:23:04.019Z,3.20
2023-01-31T13:25:40.443Z,3.10
2023-01-31T13:28:10.427Z,3.10
2023-01-31T13:30:50.533Z,3.10
2023-01-31T13:33:50.228Z,3.10
2023-01-31T13:36:35.463Z,3.00
2023-01-31T13:39:09.925Z,3.00
2023-01-31T13:41:39.444Z,3.00
2023-01-31T13:44:07.190Z,3.00
2023-01-31T13:46:46.380Z,3.00
2023-01-31T13:49:41.142Z,2.90
2023-01-31T13:52:14.550Z,2.90
2023-01-31T13:54:46.070Z,2.90
2023-01-31T13:57:33.003Z,2.90
2023-01-31T14:00:18.713Z,2.90
2023-01-31T14:03:08.456Z,2.90
2023-01-31T14:05:52.949Z,2.90
2023-01-31T14:08:57.404Z,2.90
2023-01-31T14:11:25.390Z,2.90
2023-01-31T14:14:10.132Z,2.90
2023-01-31T14:16:46.080Z,2.90
2023-01-31T14:19:21.987Z,2.90
2023-01-31T14:21:52.870Z,2.90
2023-01-31T14:24:56.698Z,2.90
2023-01-31T14:27:37.741Z,2.90
2023-01-31T14:30:04.902Z,2.80
2023-01-31T14:32:40.645Z,2.80
2023-01-31T14:35:13.528Z,2.80
2023-01-31T14:37:56.545Z,2.80
2023-01-31T14:40:30.636Z,2.80
2023-01-31T14:43:30.683Z,2.90
2023-01-31T14:46:12.974Z,2.90
2023-01-31T14:48:54.836Z,2.90
2023-01-31T14:51:39.294Z,2.90
2023-01-31T14:54:15.844Z,2.90
2023-01-31T14:57:04.231Z,3.00
2023-01-31T14:59:55.753Z,2.90
2023-01-31T15:02:31.848Z,3.00
2023-01-31T15:05:17.023Z,3.00
2023-01-31T15:08:03.683Z,3.00
2023-01-31T15:11:02.102Z,2.90
2023-01-31T15:13:53.936Z,2.90
2023-01-31T15:16:22.269Z,2.90
2023-01-31T15:19:17.608Z,2.90
2023-01-31T15:21:48.645Z,2.80
2023-01-31T15:24:35.889Z,2.80
2023-01-31T15:27:07.537Z,2.90
2023-01-31T15:29:51.422Z,2.90
2023-01-31T15:32:27.974Z,2.90
2023-01-31T15:35:01.473Z,2.90
2023-01-31T15:37:34.133Z,2.90
2023-01-31T15:40:19.987Z,2.90
2023-01-31T15:42:46.675Z,2.90
2023-01-31T15:45:24.151Z,2.90
2023-01-31T15:48:06.564Z,2.90
2023-01-31T15:50:34.211Z,2.80
2023-01-31T15:53:06.440Z,2.80
2023-01-31T15:55:35.448Z,2.80
2023-01-31T15:58:06.993Z,2.80
2023-01-31T16:00:36.666Z,2.80
2023-01-31T16:03:06.096Z,2.80
2023-01-31T16:05:35.051Z,2.80
2023-01-31T16:08:05.394Z,2.80
2023-01-31T16:10:32.462Z,2.80
2023-01-31T16:13:01.360Z,2.70
2023-01-31T16:15:32.037Z,2.80
2023-01-31T16:18:03.160Z,2.80
2023-01-31T16:20:54.043Z,2.70
2023-01-31T16:23:31.128Z,2.70
2023-01-31T16:26:09.601Z,2.70
2023-01-31T16:28:46.246Z,2.70
2023-01-31T16:31:16.471Z,2.70
2023-01-31T16:33:56.682Z,2.70
2023-01-31T16:36:34.399Z,2.70
2023-01-31T16:39:04.279Z,2.70
2023-01-31T16:41:47.013Z,2.70
2023-01-31T16:44:21.081Z,2.70
2023-01-31T16:46:49.876Z,2.70
2023-01-31T16:49:28.527Z,2.70
2023-01-31T16:52:08.839Z,2.70
2023-01-31T16:54:49.040Z,2.70
2023-01-31T16:57:25.839Z,2.70
2023-01-31T16:59:54.105Z,2.70
2023-01-31T17:02:39.992Z,2.70
2023-01-31T17:05:35.814Z,2.70
2023-01-31T17:08:04.157Z,2.70
2023-01-31T17:10:35.280Z,2.60
2023-01-31T17:13:05.339Z,2.60
2023-01-31T17:15:32.241Z,2.60
2023-01-31T17:17:59.078Z,2.60
2023-01-31T17:20:25.915Z,2.70
2023-01-31T17:23:02.316Z,2.70
2023-01-31T17:25:34.738Z,2.60
2023-01-31T17:28:01.791Z,2.60
2023-01-31T17:30:30.622Z,2.60
2023-01-31T17:32:58.466Z,2.60
2023-01-31T17:35:32.486Z,2.70
2023-01-31T17:37:59.163Z,2.60
2023-01-31T17:40:26.174Z,2.60
2023-01-31T17:42:56.886Z,2.60
2023-01-31T17:45:24.185Z,2.60
2023-01-31T17:47:50.993Z,2.60
2023-01-31T17:50:20.963Z,2.60
2023-01-31T17:52:48.642Z,2.60
2023-01-31T17:55:15.830Z,2.60
2023-01-31T17:57:42.796Z,2.60
2023-01-31T18:00:11.892Z,2.60
2023-01-31T18:02:42.395Z,2.60
2023-01-31T18:05:13.292Z,2.60
2023-01-31T18:07:40.436Z,2.60
2023-01-31T18:10:08.486Z,2.60
2023-01-31T18:12:36.575Z,2.60
2023-01-31T18:15:04.037Z,2.50
2023-01-31T18:17:31.145Z,2.60
2023-01-31T18:19:57.881Z,2.60
2023-01-31T18:22:25.669Z,2.60
2023-01-31T18:24:53.247Z,2.60
2023-01-31T18:27:20.009Z,2.60
2023-01-31T18:29:46.687Z,2.60
2023-01-31T18:32:13.381Z,2.60
2023-01-31T18:34:40.157Z,2.50
2023-01-31T18:37:12.960Z,2.50
2023-01-31T18:39:39.729Z,2.60
2023-01-31T18:42:06.458Z,2.60
2023-01-31T18:44:33.345Z,2.60
2023-01-31T18:47:00.056Z,2.60
2023-01-31T18:49:26.871Z,2.60
2023-01-31T18:51:53.653Z,2.60
2023-01-31T18:54:21.397Z,2.70
2023-01-31T18:56:48.141Z,2.70
2023-01-31T18:59:15.059Z,2.60
2023-01-31T19:01:43.583Z,2.60
2023-01-31T19:04:10.527Z,2.70
2023-01-31T19:06:38.265Z,2.60
2023-01-31T19:09:07.702Z,2.60
2023-01-31T19:11:34.907Z,2.70
2023-01-31T19:14:06.961Z,2.60
2023-01-31T19:16:37.515Z,2.70
2023-01-31T19:19:04.272Z,2.70
2023-01-31T19:21:32.799Z,2.70
2023-01-31T19:24:02.267Z,2.70
2023-01-31T19:26:29.846Z,2.60
2023-01-31T19:28:58.573Z,2.70
2023-01-31T19:31:27.376Z,2.70
2023-01-31T19:33:56.991Z,2.70
2023-01-31T19:36:32.505Z,2.60
2023-01-31T19:39:00.925Z,2.60
2023-01-31T19:41:29.528Z,2.60
2023-01-31T19:43:58.124Z,2.60
2023-01-31T19:46:27.361Z,2.60
2023-01-31T19:48:55.860Z,2.60
2023-01-31T19:51:23.469Z,2.70
2023-01-31T19:53:50.267Z,2.60
2023-01-31T19:56:17.267Z,2.60
2023-01-31T19:58:44.343Z,2.60
2023-01-31T20:01:14.100Z,2.60
2023-01-31T20:03:40.928Z,2.50
2023-01-31T20:06:17.132Z,2.50
2023-01-31T20:08:48.339Z,2.50
2023-01-31T20:11:15.105Z,2.50
2023-01-31T20:13:42.113Z,2.50
2023-01-31T20:16:11.726Z,2.50
2023-01-31T20:18:40.510Z,2.40
2023-01-31T20:21:07.680Z,2.40
2023-01-31T20:23:34.401Z,2.40
2023-01-31T20:26:01.526Z,2.40
2023-01-31T20:28:28.401Z,2.40
2023-01-31T20:30:55.276Z,2.40
2023-01-31T20:33:22.819Z,2.40
2023-01-31T20:35:49.835Z,2.40
2023-01-31T20:38:18.091Z,2.40
2023-01-31T20:40:53.163Z,2.40
2023-01-31T20:43:22.232Z,2.40
2023-01-31T20:45:49.475Z,2.40
2023-01-31T20:48:17.435Z,2.40
2023-01-31T20:50:44.824Z,2.40
2023-01-31T20:53:19.747Z,2.40
2023-01-31T20:55:53.978Z,2.40
2023-01-31T20:58:20.784Z,2.40
2023-01-31T21:00:47.602Z,2.40
2023-01-31T21:03:14.686Z,2.40
2023-01-31T21:05:41.605Z,2.40
2023-01-31T21:08:08.387Z,2.40
2023-01-31T21:10:35.079Z,2.40
2023-01-31T21:13:01.754Z,2.40
2023-01-31T21:15:28.934Z,2.40
2023-01-31T21:17:56.194Z,2.40
2023-01-31T21:20:23.360Z,2.40
2023-01-31T21:22:51.364Z,2.40
2023-01-31T21:25:18.082Z,2.40
2023-01-31T21:27:44.788Z,2.40
2023-01-31T21:30:11.880Z,2.40
2023-01-31T21:32:38.660Z,2.40
2023-01-31T21:35:06.113Z,2.40
2023-01-31T21:37:33.115Z,2.40
2023-01-31T21:39:59.866Z,2.40
2023-01-31T21:42:26.527Z,2.40
2023-01-31T21:44:53.261Z,2.40
2023-01-31T21:47:20.009Z,2.40
2023-01-31T21:49:46.769Z,2.40
2023-01-31T21:52:13.529Z,2.40
2023-01-31T21:54:40.328Z,2.40
2023-01-31T21:57:07.287Z,2.40
2023-01-31T21:59:34.081Z,2.40
2023-01-31T22:02:00.877Z,2.40
2023-01-31T22:04:27.581Z,2.50
2023-01-31T22:06:56.085Z,2.50
2023-01-31T22:09:22.908Z,2.50
2023-01-31T22:11:50.045Z,2.50
2023-01-31T22:14:17.021Z,2.50
2023-01-31T22:16:44.520Z,2.50
2023-01-31T22:19:13.659Z,2.50
2023-01-31T22:21:41.638Z,2.50
2023-01-31T22:24:11.581Z,2.60
2023-01-31T22:26:41.715Z,2.60
2023-01-31T22:29:11.084Z,2.60
2023-01-31T22:31:38.483Z,2.60
2023-01-31T22:34:06.907Z,2.60
2023-01-31T22:36:34.871Z,2.60
2023-01-31T22:39:02.032Z,2.70
2023-01-31T22:41:28.725Z,2.60
2023-01-31T22:43:56.111Z,2.60
2023-01-31T22:46:25.570Z,2.70
2023-01-31T22:48:53.329Z,2.70
2023-01-31T22:51:26.324Z,2.70
2023-01-31T22:53:57.796Z,2.60
2023-01-31T22:56:29.426Z,2.70
2023-01-31T22:59:01.773Z,2.60
2023-01-31T23:01:31.773Z,2.60
2023-01-31T23:04:00.526Z,2.60
2023-01-31T23:06:28.305Z,2.60
2023-01-31T23:08:55.939Z,2.60
2023-01-31T23:11:24.373Z,2.60
2023-01-31T23:13:51.235Z,2.60
2023-01-31T23:16:21.056Z,2.50
2023-01-31T23:18:48.076Z,2.50
2023-01-31T23:21:17.497Z,2.50
2023-01-31T23:23:45.082Z,2.40
2023-01-31T23:26:12.889Z,2.40
2023-01-31T23:28:39.917Z,2.40
2023-01-31T23:31:07.114Z,2.40
2023-01-31T23:33:34.069Z,2.40
2023-01-31T23:36:00.769Z,2.30
2023-01-31T23:38:27.452Z,2.30
2023-01-31T23:40:54.450Z,2.30
2023-01-31T23:43:22.742Z,2.30
2023-01-31T23:45:49.730Z,2.30
2023-01-31T23:48:16.496Z,2.30
2023-01-31T23:50:43.593Z,2.30
2023-01-31T23:53:10.479Z,2.30
2023-01-31T23:55:37.222Z,2.30
2023-01-31T23:58:04.218Z,2.20
